sensor_id;sensor_type;location;lat;lon;timestamp;P1;durP1;ratioP1;P2;durP2;ratioP2
10957;SDS011;5531;42.570;23.676;2023-06-26T00:00:10;27.77;;;22.05;;
10957;SDS011;5531;42.570;23.676;2023-06-26T00:02:40;28.15;;;22.58;;
10957;SDS011;5531;42.570;23.676;2023-06-26T00:05:09;29.15;;;22.17;;
10957;SDS011;5531;42.570;23.676;2023-06-26T00:07:38;26.92;;;21.50;;
10957;SDS011;5531;42.570;23.676;2023-06-26T00:10:08;29.67;;;22.55;;
10957;SDS011;5531;42.570;23.676;2023-06-26T00:12:40;30.95;;;23.48;;
10957;SDS011;5531;42.570;23.676;2023-06-26T00:15:09;30.33;;;22.80;;
10957;SDS011;5531;42.570;23.676;2023-06-26T00:17:38;28.65;;;23.52;;
10957;SDS011;5531;42.570;23.676;2023-06-26T00:20:08;30.67;;;24.20;;
10957;SDS011;5531;42.570;23.676;2023-06-26T00:22:37;30.48;;;24.45;;
10957;SDS011;5531;42.570;23.676;2023-06-26T00:25:07;32.92;;;25.40;;
10957;SDS011;5531;42.570;23.676;2023-06-26T00:27:40;31.80;;;24.77;;
10957;SDS011;5531;42.570;23.676;2023-06-26T00:30:09;27.85;;;24.35;;
10957;SDS011;5531;42.570;23.676;2023-06-26T00:32:39;31.08;;;25.50;;
10957;SDS011;5531;42.570;23.676;2023-06-26T00:35:09;29.52;;;25.50;;
10957;SDS011;5531;42.570;23.676;2023-06-26T00:37:38;32.05;;;26.35;;
10957;SDS011;5531;42.570;23.676;2023-06-26T00:40:08;31.13;;;25.75;;
10957;SDS011;5531;42.570;23.676;2023-06-26T00:42:40;34.10;;;26.92;;
10957;SDS011;5531;42.570;23.676;2023-06-26T00:45:09;31.75;;;26.15;;
10957;SDS011;5531;42.570;23.676;2023-06-26T00:47:38;31.63;;;25.60;;
10957;SDS011;5531;42.570;23.676;2023-06-26T00:50:07;33.80;;;24.98;;
10957;SDS011;5531;42.570;23.676;2023-06-26T00:52:37;31.92;;;25.98;;
10957;SDS011;5531;42.570;23.676;2023-06-26T00:55:06;30.40;;;25.52;;
10957;SDS011;5531;42.570;23.676;2023-06-26T00:57:37;32.38;;;26.15;;
10957;SDS011;5531;42.570;23.676;2023-06-26T01:00:11;31.30;;;26.00;;
10957;SDS011;5531;42.570;23.676;2023-06-26T01:02:41;30.75;;;26.45;;
10957;SDS011;5531;42.570;23.676;2023-06-26T01:05:11;28.10;;;25.10;;
10957;SDS011;5531;42.570;23.676;2023-06-26T01:07:46;28.30;;;24.88;;
10957;SDS011;5531;42.570;23.676;2023-06-26T01:10:16;31.02;;;26.30;;
10957;SDS011;5531;42.570;23.676;2023-06-26T01:12:48;30.48;;;25.80;;
10957;SDS011;5531;42.570;23.676;2023-06-26T01:15:17;30.33;;;25.83;;
10957;SDS011;5531;42.570;23.676;2023-06-26T01:17:46;29.98;;;24.15;;
10957;SDS011;5531;42.570;23.676;2023-06-26T01:20:16;29.50;;;25.02;;
10957;SDS011;5531;42.570;23.676;2023-06-26T01:22:48;27.83;;;24.92;;
10957;SDS011;5531;42.570;23.676;2023-06-26T01:25:34;28.27;;;24.95;;
10957;SDS011;5531;42.570;23.676;2023-06-26T01:28:12;27.40;;;24.40;;
10957;SDS011;5531;42.570;23.676;2023-06-26T01:30:43;30.00;;;24.13;;
10957;SDS011;5531;42.570;23.676;2023-06-26T01:33:13;26.27;;;23.33;;
10957;SDS011;5531;42.570;23.676;2023-06-26T01:35:43;27.02;;;24.20;;
10957;SDS011;5531;42.570;23.676;2023-06-26T01:38:13;25.52;;;22.80;;
10957;SDS011;5531;42.570;23.676;2023-06-26T01:40:44;28.10;;;23.48;;
10957;SDS011;5531;42.570;23.676;2023-06-26T01:43:18;26.10;;;21.70;;
10957;SDS011;5531;42.570;23.676;2023-06-26T01:45:54;27.17;;;23.58;;
10957;SDS011;5531;42.570;23.676;2023-06-26T01:48:27;26.17;;;22.88;;
10957;SDS011;5531;42.570;23.676;2023-06-26T01:51:01;27.42;;;23.25;;
10957;SDS011;5531;42.570;23.676;2023-06-26T01:53:32;24.55;;;22.05;;
10957;SDS011;5531;42.570;23.676;2023-06-26T01:56:06;23.52;;;21.05;;
10957;SDS011;5531;42.570;23.676;2023-06-26T01:58:40;23.42;;;20.95;;
10957;SDS011;5531;42.570;23.676;2023-06-26T02:01:12;23.70;;;21.20;;
10957;SDS011;5531;42.570;23.676;2023-06-26T02:03:41;22.98;;;20.52;;
10957;SDS011;5531;42.570;23.676;2023-06-26T02:06:10;25.05;;;21.35;;
10957;SDS011;5531;42.570;23.676;2023-06-26T02:08:39;23.92;;;21.30;;
10957;SDS011;5531;42.570;23.676;2023-06-26T02:11:08;24.38;;;21.75;;
10957;SDS011;5531;42.570;23.676;2023-06-26T02:13:40;24.25;;;21.75;;
10957;SDS011;5531;42.570;23.676;2023-06-26T02:16:09;23.75;;;21.10;;
10957;SDS011;5531;42.570;23.676;2023-06-26T02:18:38;23.27;;;20.83;;
10957;SDS011;5531;42.570;23.676;2023-06-26T02:21:07;24.38;;;21.55;;
10957;SDS011;5531;42.570;23.676;2023-06-26T02:23:36;22.70;;;20.40;;
10957;SDS011;5531;42.570;23.676;2023-06-26T02:26:05;23.60;;;21.15;;
10957;SDS011;5531;42.570;23.676;2023-06-26T02:28:34;23.70;;;20.70;;
10957;SDS011;5531;42.570;23.676;2023-06-26T02:31:06;23.33;;;20.83;;
10957;SDS011;5531;42.570;23.676;2023-06-26T02:33:35;22.63;;;20.38;;
10957;SDS011;5531;42.570;23.676;2023-06-26T02:36:04;22.60;;;20.20;;
10957;SDS011;5531;42.570;23.676;2023-06-26T02:38:33;22.00;;;19.77;;
10957;SDS011;5531;42.570;23.676;2023-06-26T02:41:02;22.08;;;19.75;;
10957;SDS011;5531;42.570;23.676;2023-06-26T02:43:31;22.80;;;20.27;;
10957;SDS011;5531;42.570;23.676;2023-06-26T02:46:00;23.52;;;20.33;;
10957;SDS011;5531;42.570;23.676;2023-06-26T02:48:32;22.63;;;20.33;;
10957;SDS011;5531;42.570;23.676;2023-06-26T02:51:01;22.45;;;20.23;;
10957;SDS011;5531;42.570;23.676;2023-06-26T02:53:30;21.40;;;19.25;;
10957;SDS011;5531;42.570;23.676;2023-06-26T02:56:00;21.98;;;19.75;;
10957;SDS011;5531;42.570;23.676;2023-06-26T02:58:29;22.65;;;20.25;;
10957;SDS011;5531;42.570;23.676;2023-06-26T03:00:58;21.83;;;19.50;;
10957;SDS011;5531;42.570;23.676;2023-06-26T03:03:26;22.27;;;19.85;;
10957;SDS011;5531;42.570;23.676;2023-06-26T03:05:58;24.13;;;19.48;;
10957;SDS011;5531;42.570;23.676;2023-06-26T03:08:27;21.40;;;19.25;;
10957;SDS011;5531;42.570;23.676;2023-06-26T03:10:57;20.95;;;18.90;;
10957;SDS011;5531;42.570;23.676;2023-06-26T03:13:26;22.38;;;20.05;;
10957;SDS011;5531;42.570;23.676;2023-06-26T03:15:55;21.52;;;19.25;;
10957;SDS011;5531;42.570;23.676;2023-06-26T03:18:24;21.08;;;18.98;;
10957;SDS011;5531;42.570;23.676;2023-06-26T03:20:53;21.60;;;19.13;;
10957;SDS011;5531;42.570;23.676;2023-06-26T03:23:26;20.60;;;18.55;;
10957;SDS011;5531;42.570;23.676;2023-06-26T03:25:55;21.45;;;19.25;;
10957;SDS011;5531;42.570;23.676;2023-06-26T03:28:24;21.52;;;19.42;;
10957;SDS011;5531;42.570;23.676;2023-06-26T03:30:53;22.23;;;19.67;;
10957;SDS011;5531;42.570;23.676;2023-06-26T03:33:22;20.30;;;18.40;;
10957;SDS011;5531;42.570;23.676;2023-06-26T03:35:51;21.20;;;18.90;;
10957;SDS011;5531;42.570;23.676;2023-06-26T03:38:21;22.45;;;20.15;;
10957;SDS011;5531;42.570;23.676;2023-06-26T03:40:53;22.80;;;20.55;;
10957;SDS011;5531;42.570;23.676;2023-06-26T03:43:22;21.35;;;19.25;;
10957;SDS011;5531;42.570;23.676;2023-06-26T03:45:51;21.67;;;19.45;;
10957;SDS011;5531;42.570;23.676;2023-06-26T03:48:20;22.05;;;19.90;;
10957;SDS011;5531;42.570;23.676;2023-06-26T03:50:49;22.80;;;20.60;;
10957;SDS011;5531;42.570;23.676;2023-06-26T03:53:19;22.65;;;20.33;;
10957;SDS011;5531;42.570;23.676;2023-06-26T03:55:48;23.50;;;21.10;;
10957;SDS011;5531;42.570;23.676;2023-06-26T03:58:20;25.00;;;22.35;;
10957;SDS011;5531;42.570;23.676;2023-06-26T04:00:50;22.80;;;20.42;;
10957;SDS011;5531;42.570;23.676;2023-06-26T04:03:21;23.60;;;21.17;;
10957;SDS011;5531;42.570;23.676;2023-06-26T04:05:50;24.45;;;22.08;;
10957;SDS011;5531;42.570;23.676;2023-06-26T04:08:19;23.95;;;21.50;;
10957;SDS011;5531;42.570;23.676;2023-06-26T04:10:48;24.40;;;21.88;;
10957;SDS011;5531;42.570;23.676;2023-06-26T04:13:20;24.48;;;22.10;;
10957;SDS011;5531;42.570;23.676;2023-06-26T04:15:49;24.38;;;21.98;;
10957;SDS011;5531;42.570;23.676;2023-06-26T04:18:18;24.00;;;21.70;;
10957;SDS011;5531;42.570;23.676;2023-06-26T04:23:36;25.25;;;22.65;;
10957;SDS011;5531;42.570;23.676;2023-06-26T04:26:06;23.13;;;20.85;;
10957;SDS011;5531;42.570;23.676;2023-06-26T04:28:42;24.58;;;22.23;;
10957;SDS011;5531;42.570;23.676;2023-06-26T04:31:15;24.33;;;22.02;;
10957;SDS011;5531;42.570;23.676;2023-06-26T04:33:44;25.85;;;23.25;;
10957;SDS011;5531;42.570;23.676;2023-06-26T04:36:16;23.98;;;21.77;;
10957;SDS011;5531;42.570;23.676;2023-06-26T04:38:45;24.33;;;22.13;;
10957;SDS011;5531;42.570;23.676;2023-06-26T04:41:15;24.85;;;22.40;;
10957;SDS011;5531;42.570;23.676;2023-06-26T04:43:46;25.15;;;22.65;;
10957;SDS011;5531;42.570;23.676;2023-06-26T04:46:15;24.15;;;21.58;;
10957;SDS011;5531;42.570;23.676;2023-06-26T04:48:44;24.80;;;22.45;;
10957;SDS011;5531;42.570;23.676;2023-06-26T04:51:13;24.67;;;22.30;;
10957;SDS011;5531;42.570;23.676;2023-06-26T04:53:45;24.50;;;21.92;;
10957;SDS011;5531;42.570;23.676;2023-06-26T04:56:14;24.55;;;22.27;;
10957;SDS011;5531;42.570;23.676;2023-06-26T04:58:46;25.00;;;22.40;;
10957;SDS011;5531;42.570;23.676;2023-06-26T05:01:15;25.63;;;23.17;;
10957;SDS011;5531;42.570;23.676;2023-06-26T05:03:44;25.63;;;23.25;;
10957;SDS011;5531;42.570;23.676;2023-06-26T05:06:13;26.50;;;23.80;;
10957;SDS011;5531;42.570;23.676;2023-06-26T05:08:42;24.80;;;22.20;;
10957;SDS011;5531;42.570;23.676;2023-06-26T05:11:11;25.35;;;23.08;;
10957;SDS011;5531;42.570;23.676;2023-06-26T05:13:40;25.85;;;23.38;;
10957;SDS011;5531;42.570;23.676;2023-06-26T05:16:12;26.45;;;23.95;;
10957;SDS011;5531;42.570;23.676;2023-06-26T05:18:41;25.52;;;23.05;;
10957;SDS011;5531;42.570;23.676;2023-06-26T05:21:11;25.70;;;23.35;;
10957;SDS011;5531;42.570;23.676;2023-06-26T05:23:40;26.10;;;23.58;;
10957;SDS011;5531;42.570;23.676;2023-06-26T05:26:10;26.40;;;23.80;;
10957;SDS011;5531;42.570;23.676;2023-06-26T05:28:40;25.20;;;22.60;;
10957;SDS011;5531;42.570;23.676;2023-06-26T05:31:16;26.13;;;23.73;;
10957;SDS011;5531;42.570;23.676;2023-06-26T05:33:46;25.40;;;22.73;;
10957;SDS011;5531;42.570;23.676;2023-06-26T05:36:16;24.80;;;22.50;;
10957;SDS011;5531;42.570;23.676;2023-06-26T05:38:49;24.58;;;22.17;;
10957;SDS011;5531;42.570;23.676;2023-06-26T05:41:19;25.73;;;23.40;;
10957;SDS011;5531;42.570;23.676;2023-06-26T05:43:48;23.77;;;21.45;;
10957;SDS011;5531;42.570;23.676;2023-06-26T05:46:22;25.70;;;23.38;;
10957;SDS011;5531;42.570;23.676;2023-06-26T05:48:51;22.25;;;20.27;;
10957;SDS011;5531;42.570;23.676;2023-06-26T05:51:20;22.60;;;20.35;;
10957;SDS011;5531;42.570;23.676;2023-06-26T05:53:50;21.10;;;19.17;;
10957;SDS011;5531;42.570;23.676;2023-06-26T05:56:20;23.23;;;20.83;;
10957;SDS011;5531;42.570;23.676;2023-06-26T05:58:49;21.00;;;19.02;;
10957;SDS011;5531;42.570;23.676;2023-06-26T06:01:22;21.33;;;19.25;;
10957;SDS011;5531;42.570;23.676;2023-06-26T06:03:51;21.17;;;19.17;;
10957;SDS011;5531;42.570;23.676;2023-06-26T06:06:20;21.63;;;19.55;;
10957;SDS011;5531;42.570;23.676;2023-06-26T06:08:49;22.48;;;20.33;;
10957;SDS011;5531;42.570;23.676;2023-06-26T06:11:18;22.05;;;20.08;;
10957;SDS011;5531;42.570;23.676;2023-06-26T06:13:48;22.23;;;20.02;;
10957;SDS011;5531;42.570;23.676;2023-06-26T06:16:17;21.77;;;19.77;;
10957;SDS011;5531;42.570;23.676;2023-06-26T06:18:48;21.83;;;19.77;;
10957;SDS011;5531;42.570;23.676;2023-06-26T06:21:17;23.27;;;21.08;;
10957;SDS011;5531;42.570;23.676;2023-06-26T06:23:46;23.27;;;20.90;;
10957;SDS011;5531;42.570;23.676;2023-06-26T06:26:15;24.23;;;21.65;;
10957;SDS011;5531;42.570;23.676;2023-06-26T06:28:45;24.75;;;22.23;;
10957;SDS011;5531;42.570;23.676;2023-06-26T06:31:14;25.48;;;23.08;;
10957;SDS011;5531;42.570;23.676;2023-06-26T06:33:43;24.83;;;22.55;;
10957;SDS011;5531;42.570;23.676;2023-06-26T06:36:15;23.85;;;21.67;;
10957;SDS011;5531;42.570;23.676;2023-06-26T06:38:44;24.05;;;21.40;;
10957;SDS011;5531;42.570;23.676;2023-06-26T06:41:13;24.15;;;21.70;;
10957;SDS011;5531;42.570;23.676;2023-06-26T06:43:42;23.20;;;21.10;;
10957;SDS011;5531;42.570;23.676;2023-06-26T06:46:11;23.27;;;21.02;;
10957;SDS011;5531;42.570;23.676;2023-06-26T06:48:40;23.33;;;21.00;;
10957;SDS011;5531;42.570;23.676;2023-06-26T06:51:09;22.55;;;20.25;;
10957;SDS011;5531;42.570;23.676;2023-06-26T06:53:41;22.02;;;19.95;;
10957;SDS011;5531;42.570;23.676;2023-06-26T06:56:10;22.30;;;20.27;;
10957;SDS011;5531;42.570;23.676;2023-06-26T06:58:39;23.20;;;20.88;;
10957;SDS011;5531;42.570;23.676;2023-06-26T07:01:09;22.60;;;20.42;;
10957;SDS011;5531;42.570;23.676;2023-06-26T07:03:38;22.48;;;19.25;;
10957;SDS011;5531;42.570;23.676;2023-06-26T07:06:07;20.60;;;18.52;;
10957;SDS011;5531;42.570;23.676;2023-06-26T07:08:36;20.63;;;18.67;;
10957;SDS011;5531;42.570;23.676;2023-06-26T07:11:07;19.85;;;17.95;;
10957;SDS011;5531;42.570;23.676;2023-06-26T07:13:37;19.42;;;17.42;;
10957;SDS011;5531;42.570;23.676;2023-06-26T07:16:06;18.27;;;16.58;;
10957;SDS011;5531;42.570;23.676;2023-06-26T07:18:37;16.83;;;15.10;;
10957;SDS011;5531;42.570;23.676;2023-06-26T07:21:06;14.20;;;12.80;;
10957;SDS011;5531;42.570;23.676;2023-06-26T07:23:39;15.75;;;14.35;;
10957;SDS011;5531;42.570;23.676;2023-06-26T07:26:13;14.10;;;12.80;;
10957;SDS011;5531;42.570;23.676;2023-06-26T07:28:43;12.50;;;11.40;;
10957;SDS011;5531;42.570;23.676;2023-06-26T07:31:14;12.95;;;11.75;;
10957;SDS011;5531;42.570;23.676;2023-06-26T07:33:43;13.68;;;12.25;;
10957;SDS011;5531;42.570;23.676;2023-06-26T07:36:12;14.43;;;11.98;;
10957;SDS011;5531;42.570;23.676;2023-06-26T07:38:41;13.95;;;12.55;;
10957;SDS011;5531;42.570;23.676;2023-06-26T07:41:13;12.77;;;11.50;;
10957;SDS011;5531;42.570;23.676;2023-06-26T07:43:42;14.30;;;12.90;;
10957;SDS011;5531;42.570;23.676;2023-06-26T07:46:11;14.38;;;12.93;;
10957;SDS011;5531;42.570;23.676;2023-06-26T07:48:40;14.68;;;13.20;;
10957;SDS011;5531;42.570;23.676;2023-06-26T07:51:09;11.88;;;10.88;;
10957;SDS011;5531;42.570;23.676;2023-06-26T07:53:38;13.57;;;11.85;;
10957;SDS011;5531;42.570;23.676;2023-06-26T07:56:07;11.65;;;10.45;;
10957;SDS011;5531;42.570;23.676;2023-06-26T07:58:38;12.07;;;10.88;;
10957;SDS011;5531;42.570;23.676;2023-06-26T08:01:08;12.85;;;11.38;;
10957;SDS011;5531;42.570;23.676;2023-06-26T08:03:37;11.82;;;10.57;;
10957;SDS011;5531;42.570;23.676;2023-06-26T08:06:06;13.50;;;11.93;;
10957;SDS011;5531;42.570;23.676;2023-06-26T08:08:35;12.52;;;11.32;;
10957;SDS011;5531;42.570;23.676;2023-06-26T08:11:04;8.85;;;8.05;;
10957;SDS011;5531;42.570;23.676;2023-06-26T08:13:33;6.75;;;6.15;;
10957;SDS011;5531;42.570;23.676;2023-06-26T08:16:04;7.20;;;5.32;;
10957;SDS011;5531;42.570;23.676;2023-06-26T08:18:33;6.10;;;5.50;;
10957;SDS011;5531;42.570;23.676;2023-06-26T08:21:02;7.05;;;6.35;;
10957;SDS011;5531;42.570;23.676;2023-06-26T08:23:31;8.82;;;7.00;;
10957;SDS011;5531;42.570;23.676;2023-06-26T08:26:00;8.05;;;7.28;;
10957;SDS011;5531;42.570;23.676;2023-06-26T08:28:29;8.10;;;6.80;;
10957;SDS011;5531;42.570;23.676;2023-06-26T08:30:58;7.15;;;5.95;;
10957;SDS011;5531;42.570;23.676;2023-06-26T08:33:30;8.00;;;7.18;;
10957;SDS011;5531;42.570;23.676;2023-06-26T08:35:59;8.00;;;6.82;;
10957;SDS011;5531;42.570;23.676;2023-06-26T08:38:28;7.85;;;7.15;;
10957;SDS011;5531;42.570;23.676;2023-06-26T08:40:58;8.38;;;7.65;;
10957;SDS011;5531;42.570;23.676;2023-06-26T08:43:27;8.23;;;7.18;;
10957;SDS011;5531;42.570;23.676;2023-06-26T08:45:56;7.38;;;6.75;;
10957;SDS011;5531;42.570;23.676;2023-06-26T08:48:26;8.85;;;5.80;;
10957;SDS011;5531;42.570;23.676;2023-06-26T08:51:00;5.53;;;5.03;;
10957;SDS011;5531;42.570;23.676;2023-06-26T08:53:33;5.72;;;4.57;;
10957;SDS011;5531;42.570;23.676;2023-06-26T08:56:11;7.32;;;5.97;;
10957;SDS011;5531;42.570;23.676;2023-06-26T08:58:43;6.32;;;5.70;;
10957;SDS011;5531;42.570;23.676;2023-06-26T09:01:13;8.45;;;7.15;;
10957;SDS011;5531;42.570;23.676;2023-06-26T09:03:44;7.72;;;6.95;;
10957;SDS011;5531;42.570;23.676;2023-06-26T09:06:16;5.88;;;5.28;;
10957;SDS011;5531;42.570;23.676;2023-06-26T09:08:46;6.55;;;5.95;;
10957;SDS011;5531;42.570;23.676;2023-06-26T09:11:15;8.43;;;5.50;;
10957;SDS011;5531;42.570;23.676;2023-06-26T09:13:44;7.55;;;5.60;;
10957;SDS011;5531;42.570;23.676;2023-06-26T09:16:13;6.80;;;5.10;;
10957;SDS011;5531;42.570;23.676;2023-06-26T09:18:44;5.28;;;4.88;;
10957;SDS011;5531;42.570;23.676;2023-06-26T09:21:16;5.80;;;4.88;;
10957;SDS011;5531;42.570;23.676;2023-06-26T09:23:45;5.13;;;4.72;;
10957;SDS011;5531;42.570;23.676;2023-06-26T09:26:15;5.43;;;4.93;;
10957;SDS011;5531;42.570;23.676;2023-06-26T09:28:45;5.63;;;5.05;;
10957;SDS011;5531;42.570;23.676;2023-06-26T09:31:16;6.10;;;5.13;;
10957;SDS011;5531;42.570;23.676;2023-06-26T09:33:46;6.38;;;5.32;;
10957;SDS011;5531;42.570;23.676;2023-06-26T09:36:20;7.05;;;5.20;;
10957;SDS011;5531;42.570;23.676;2023-06-26T09:38:50;5.97;;;5.32;;
10957;SDS011;5531;42.570;23.676;2023-06-26T09:41:19;6.93;;;5.43;;
10957;SDS011;5531;42.570;23.676;2023-06-26T09:43:49;6.05;;;5.45;;
10957;SDS011;5531;42.570;23.676;2023-06-26T09:46:24;6.57;;;5.90;;
10957;SDS011;5531;42.570;23.676;2023-06-26T09:48:57;8.43;;;7.28;;
10957;SDS011;5531;42.570;23.676;2023-06-26T09:51:32;8.35;;;7.40;;
10957;SDS011;5531;42.570;23.676;2023-06-26T09:54:02;7.43;;;6.72;;
10957;SDS011;5531;42.570;23.676;2023-06-26T09:56:32;7.55;;;6.75;;
10957;SDS011;5531;42.570;23.676;2023-06-26T09:59:02;6.90;;;6.20;;
10957;SDS011;5531;42.570;23.676;2023-06-26T10:01:33;7.13;;;6.07;;
10957;SDS011;5531;42.570;23.676;2023-06-26T10:04:05;7.63;;;6.20;;
10957;SDS011;5531;42.570;23.676;2023-06-26T10:06:37;7.55;;;5.55;;
10957;SDS011;5531;42.570;23.676;2023-06-26T10:09:13;6.55;;;6.00;;
10957;SDS011;5531;42.570;23.676;2023-06-26T10:11:46;7.93;;;6.32;;
10957;SDS011;5531;42.570;23.676;2023-06-26T10:14:19;6.80;;;6.25;;
10957;SDS011;5531;42.570;23.676;2023-06-26T10:16:49;6.72;;;6.13;;
10957;SDS011;5531;42.570;23.676;2023-06-26T10:19:19;8.00;;;7.03;;
10957;SDS011;5531;42.570;23.676;2023-06-26T10:21:54;6.50;;;5.72;;
10957;SDS011;5531;42.570;23.676;2023-06-26T10:24:24;8.25;;;6.10;;
10957;SDS011;5531;42.570;23.676;2023-06-26T10:26:57;6.10;;;5.47;;
10957;SDS011;5531;42.570;23.676;2023-06-26T10:29:30;6.07;;;5.47;;
10957;SDS011;5531;42.570;23.676;2023-06-26T10:32:02;6.38;;;5.78;;
10957;SDS011;5531;42.570;23.676;2023-06-26T10:34:34;6.85;;;6.25;;
10957;SDS011;5531;42.570;23.676;2023-06-26T10:37:06;6.07;;;5.57;;
10957;SDS011;5531;42.570;23.676;2023-06-26T10:39:48;6.68;;;6.07;;
10957;SDS011;5531;42.570;23.676;2023-06-26T10:42:20;6.43;;;5.53;;
10957;SDS011;5531;42.570;23.676;2023-06-26T10:45:08;6.10;;;5.60;;
10957;SDS011;5531;42.570;23.676;2023-06-26T10:47:39;6.13;;;5.63;;
10957;SDS011;5531;42.570;23.676;2023-06-26T10:50:19;6.15;;;5.55;;
10957;SDS011;5531;42.570;23.676;2023-06-26T10:55:47;6.45;;;5.95;;
10957;SDS011;5531;42.570;23.676;2023-06-26T10:58:28;6.60;;;5.57;;
10957;SDS011;5531;42.570;23.676;2023-06-26T11:03:47;6.80;;;5.53;;
10957;SDS011;5531;42.570;23.676;2023-06-26T11:06:18;6.68;;;5.97;;
10957;SDS011;5531;42.570;23.676;2023-06-26T11:08:51;6.43;;;5.82;;
10957;SDS011;5531;42.570;23.676;2023-06-26T11:11:22;6.65;;;6.05;;
10957;SDS011;5531;42.570;23.676;2023-06-26T11:14:31;9.10;;;6.93;;
10957;SDS011;5531;42.570;23.676;2023-06-26T11:17:03;7.07;;;6.28;;
10957;SDS011;5531;42.570;23.676;2023-06-26T11:19:32;6.72;;;5.90;;
10957;SDS011;5531;42.570;23.676;2023-06-26T11:22:02;7.38;;;6.55;;
10957;SDS011;5531;42.570;23.676;2023-06-26T11:24:35;7.13;;;6.43;;
10957;SDS011;5531;42.570;23.676;2023-06-26T11:27:05;6.72;;;6.13;;
10957;SDS011;5531;42.570;23.676;2023-06-26T11:29:34;6.55;;;5.57;;
10957;SDS011;5531;42.570;23.676;2023-06-26T11:32:04;7.15;;;5.50;;
10957;SDS011;5531;42.570;23.676;2023-06-26T11:34:34;5.97;;;4.95;;
10957;SDS011;5531;42.570;23.676;2023-06-26T11:37:03;5.28;;;4.88;;
10957;SDS011;5531;42.570;23.676;2023-06-26T11:39:35;6.32;;;5.00;;
10957;SDS011;5531;42.570;23.676;2023-06-26T11:42:05;7.68;;;5.75;;
10957;SDS011;5531;42.570;23.676;2023-06-26T11:44:39;5.82;;;5.32;;
10957;SDS011;5531;42.570;23.676;2023-06-26T11:47:13;7.18;;;6.35;;
10957;SDS011;5531;42.570;23.676;2023-06-26T11:49:43;7.00;;;6.07;;
10957;SDS011;5531;42.570;23.676;2023-06-26T11:52:13;7.18;;;6.38;;
10957;SDS011;5531;42.570;23.676;2023-06-26T11:54:45;8.45;;;6.57;;
10957;SDS011;5531;42.570;23.676;2023-06-26T11:57:14;7.15;;;6.35;;
10957;SDS011;5531;42.570;23.676;2023-06-26T11:59:44;7.32;;;6.63;;
10957;SDS011;5531;42.570;23.676;2023-06-26T12:02:13;7.78;;;6.28;;
10957;SDS011;5531;42.570;23.676;2023-06-26T12:04:43;7.38;;;6.18;;
10957;SDS011;5531;42.570;23.676;2023-06-26T12:07:13;7.45;;;6.13;;
10957;SDS011;5531;42.570;23.676;2023-06-26T12:09:46;6.72;;;6.00;;
10957;SDS011;5531;42.570;23.676;2023-06-26T12:12:16;7.40;;;6.57;;
10957;SDS011;5531;42.570;23.676;2023-06-26T12:14:46;7.00;;;6.28;;
10957;SDS011;5531;42.570;23.676;2023-06-26T12:17:16;7.65;;;6.63;;
10957;SDS011;5531;42.570;23.676;2023-06-26T12:19:45;7.10;;;6.50;;
10957;SDS011;5531;42.570;23.676;2023-06-26T12:22:16;8.27;;;6.50;;
10957;SDS011;5531;42.570;23.676;2023-06-26T12:24:48;7.93;;;6.20;;
10957;SDS011;5531;42.570;23.676;2023-06-26T12:27:18;6.80;;;5.68;;
10957;SDS011;5531;42.570;23.676;2023-06-26T12:29:49;5.72;;;5.13;;
10957;SDS011;5531;42.570;23.676;2023-06-26T12:32:21;6.45;;;5.35;;
10957;SDS011;5531;42.570;23.676;2023-06-26T12:34:52;6.15;;;5.55;;
10957;SDS011;5531;42.570;23.676;2023-06-26T12:37:21;4.90;;;4.50;;
10957;SDS011;5531;42.570;23.676;2023-06-26T12:39:54;5.63;;;4.32;;
10957;SDS011;5531;42.570;23.676;2023-06-26T12:42:24;5.63;;;4.35;;
10957;SDS011;5531;42.570;23.676;2023-06-26T12:44:54;5.15;;;4.75;;
10957;SDS011;5531;42.570;23.676;2023-06-26T12:47:24;4.78;;;4.38;;
10957;SDS011;5531;42.570;23.676;2023-06-26T12:49:56;6.63;;;4.75;;
10957;SDS011;5531;42.570;23.676;2023-06-26T12:52:25;4.78;;;4.07;;
10957;SDS011;5531;42.570;23.676;2023-06-26T12:54:57;6.82;;;4.80;;
10957;SDS011;5531;42.570;23.676;2023-06-26T12:57:26;3.70;;;3.40;;
10957;SDS011;5531;42.570;23.676;2023-06-26T12:59:55;5.88;;;3.95;;
10957;SDS011;5531;42.570;23.676;2023-06-26T13:02:26;4.95;;;4.55;;
10957;SDS011;5531;42.570;23.676;2023-06-26T13:04:55;5.20;;;4.68;;
10957;SDS011;5531;42.570;23.676;2023-06-26T13:07:24;5.22;;;4.78;;
10957;SDS011;5531;42.570;23.676;2023-06-26T13:09:53;6.88;;;4.95;;
10957;SDS011;5531;42.570;23.676;2023-06-26T13:12:25;5.40;;;4.90;;
10957;SDS011;5531;42.570;23.676;2023-06-26T13:14:54;5.03;;;4.63;;
10957;SDS011;5531;42.570;23.676;2023-06-26T13:17:26;5.95;;;5.18;;
10957;SDS011;5531;42.570;23.676;2023-06-26T13:19:55;5.00;;;4.50;;
10957;SDS011;5531;42.570;23.676;2023-06-26T13:22:24;5.00;;;4.50;;
10957;SDS011;5531;42.570;23.676;2023-06-26T13:24:53;5.88;;;5.28;;
10957;SDS011;5531;42.570;23.676;2023-06-26T13:27:24;6.07;;;5.47;;
10957;SDS011;5531;42.570;23.676;2023-06-26T13:29:53;4.50;;;3.92;;
10957;SDS011;5531;42.570;23.676;2023-06-26T13:32:22;4.60;;;4.20;;
10957;SDS011;5531;42.570;23.676;2023-06-26T13:34:51;6.68;;;4.93;;
10957;SDS011;5531;42.570;23.676;2023-06-26T13:37:20;6.95;;;6.13;;
10957;SDS011;5531;42.570;23.676;2023-06-26T13:39:49;6.25;;;5.65;;
10957;SDS011;5531;42.570;23.676;2023-06-26T13:42:19;6.68;;;6.07;;
10957;SDS011;5531;42.570;23.676;2023-06-26T13:44:50;8.13;;;6.35;;
10957;SDS011;5531;42.570;23.676;2023-06-26T13:47:19;6.68;;;6.07;;
10957;SDS011;5531;42.570;23.676;2023-06-26T13:49:48;5.93;;;4.95;;
10957;SDS011;5531;42.570;23.676;2023-06-26T13:52:17;6.25;;;5.28;;
10957;SDS011;5531;42.570;23.676;2023-06-26T13:54:46;5.80;;;5.30;;
10957;SDS011;5531;42.570;23.676;2023-06-26T13:57:15;6.38;;;5.07;;
10957;SDS011;5531;42.570;23.676;2023-06-26T13:59:44;6.50;;;4.75;;
10957;SDS011;5531;42.570;23.676;2023-06-26T14:02:16;5.47;;;4.78;;
10957;SDS011;5531;42.570;23.676;2023-06-26T14:04:45;5.75;;;4.85;;
10957;SDS011;5531;42.570;23.676;2023-06-26T14:07:14;5.35;;;4.85;;
10957;SDS011;5531;42.570;23.676;2023-06-26T14:09:43;5.55;;;4.70;;
10957;SDS011;5531;42.570;23.676;2023-06-26T14:12:12;5.20;;;4.70;;
10957;SDS011;5531;42.570;23.676;2023-06-26T14:14:41;5.30;;;4.80;;
10957;SDS011;5531;42.570;23.676;2023-06-26T14:17:11;5.50;;;5.00;;
10957;SDS011;5531;42.570;23.676;2023-06-26T14:19:44;5.78;;;5.28;;
10957;SDS011;5531;42.570;23.676;2023-06-26T14:22:13;6.00;;;5.40;;
10957;SDS011;5531;42.570;23.676;2023-06-26T14:24:42;5.82;;;5.30;;
10957;SDS011;5531;42.570;23.676;2023-06-26T14:27:11;6.18;;;5.47;;
10957;SDS011;5531;42.570;23.676;2023-06-26T14:29:40;5.90;;;5.32;;
10957;SDS011;5531;42.570;23.676;2023-06-26T14:32:10;6.28;;;5.68;;
10957;SDS011;5531;42.570;23.676;2023-06-26T14:34:39;6.18;;;5.57;;
10957;SDS011;5531;42.570;23.676;2023-06-26T14:37:11;7.05;;;6.15;;
10957;SDS011;5531;42.570;23.676;2023-06-26T14:39:41;7.20;;;6.50;;
10957;SDS011;5531;42.570;23.676;2023-06-26T14:42:10;6.57;;;5.97;;
10957;SDS011;5531;42.570;23.676;2023-06-26T14:44:39;7.40;;;6.70;;
10957;SDS011;5531;42.570;23.676;2023-06-26T14:47:12;7.13;;;6.25;;
10957;SDS011;5531;42.570;23.676;2023-06-26T14:49:41;9.63;;;6.72;;
10957;SDS011;5531;42.570;23.676;2023-06-26T14:52:13;10.93;;;7.35;;
10957;SDS011;5531;42.570;23.676;2023-06-26T14:54:42;9.02;;;5.97;;
10957;SDS011;5531;42.570;23.676;2023-06-26T14:57:11;7.65;;;5.28;;
10957;SDS011;5531;42.570;23.676;2023-06-26T14:59:40;9.13;;;5.78;;